sensor_id;sensor_type;location;lat;lon;timestamp;pressure;altitude;pressure_sealevel;temperature;humidity
11339;BME280;5724;42.684;23.252;2023-06-14T00:02:17;94081.38;;;15.45;100.00
11339;BME280;5724;42.684;23.252;2023-06-14T00:04:43;94079.38;;;15.49;100.00
11339;BME280;5724;42.684;23.252;2023-06-14T00:07:08;94074.28;;;15.55;100.00
11339;BME280;5724;42.684;23.252;2023-06-14T00:09:34;94075.03;;;15.59;100.00
11339;BME280;5724;42.684;23.252;2023-06-14T00:12:00;94064.03;;;15.59;100.00
11339;BME280;5724;42.684;23.252;2023-06-14T00:14:26;94076.25;;;15.65;100.00
11339;BME280;5724;42.684;23.252;2023-06-14T00:16:51;94076.63;;;15.67;100.00
11339;BME280;5724;42.684;23.252;2023-06-14T00:19:24;94074.25;;;15.62;100.00
11339;BME280;5724;42.684;23.252;2023-06-14T00:21:50;94069.16;;;15.64;100.00
11339;BME280;5724;42.684;23.252;2023-06-14T00:24:17;94067.94;;;15.76;100.00
11339;BME280;5724;42.684;23.252;2023-06-14T00:26:42;94075.81;;;15.70;100.00
11339;BME280;5724;42.684;23.252;2023-06-14T00:29:08;94063.63;;;15.71;100.00
11339;BME280;5724;42.684;23.252;2023-06-14T00:31:33;94063.66;;;15.50;100.00
11339;BME280;5724;42.684;23.252;2023-06-14T00:33:59;94069.16;;;15.50;100.00
11339;BME280;5724;42.684;23.252;2023-06-14T00:36:24;94058.56;;;15.44;100.00
11339;BME280;5724;42.684;23.252;2023-06-14T00:38:49;94061.75;;;15.25;100.00
11339;BME280;5724;42.684;23.252;2023-06-14T00:41:15;94030.31;;;15.08;100.00
11339;BME280;5724;42.684;23.252;2023-06-14T00:43:40;94055.03;;;15.30;100.00
11339;BME280;5724;42.684;23.252;2023-06-14T00:46:06;94056.22;;;15.36;100.00
11339;BME280;5724;42.684;23.252;2023-06-14T00:48:32;94052.25;;;15.48;100.00
11339;BME280;5724;42.684;23.252;2023-06-14T00:50:59;94048.28;;;15.52;100.00
11339;BME280;5724;42.684;23.252;2023-06-14T00:53:27;94055.38;;;15.57;100.00
11339;BME280;5724;42.684;23.252;2023-06-14T00:55:52;94052.22;;;15.58;100.00
11339;BME280;5724;42.684;23.252;2023-06-14T00:58:18;94049.47;;;15.69;100.00
11339;BME280;5724;42.684;23.252;2023-06-14T01:00:44;94053.00;;;15.73;100.00
11339;BME280;5724;42.684;23.252;2023-06-14T01:03:10;94053.38;;;15.75;100.00
11339;BME280;5724;42.684;23.252;2023-06-14T01:05:37;94048.25;;;15.77;100.00
11339;BME280;5724;42.684;23.252;2023-06-14T01:08:25;94053.34;;;15.82;100.00
11339;BME280;5724;42.684;23.252;2023-06-14T01:11:06;94046.69;;;15.76;100.00
11339;BME280;5724;42.684;23.252;2023-06-14T01:13:35;94052.94;;;15.87;100.00
11339;BME280;5724;42.684;23.252;2023-06-14T01:16:01;94044.28;;;15.82;100.00
11339;BME280;5724;42.684;23.252;2023-06-14T01:18:28;94056.16;;;15.75;100.00
11339;BME280;5724;42.684;23.252;2023-06-14T01:20:55;94045.91;;;15.83;100.00
11339;BME280;5724;42.684;23.252;2023-06-14T01:23:22;94044.66;;;15.94;100.00
11339;BME280;5724;42.684;23.252;2023-06-14T01:25:49;94046.63;;;15.94;100.00
11339;BME280;5724;42.684;23.252;2023-06-14T01:28:21;94051.41;;;15.79;100.00
11339;BME280;5724;42.684;23.252;2023-06-14T01:30:50;94036.91;;;15.61;100.00
11339;BME280;5724;42.684;23.252;2023-06-14T01:33:22;94032.56;;;15.67;100.00
11339;BME280;5724;42.684;23.252;2023-06-14T01:35:53;94040.41;;;15.72;100.00
11339;BME280;5724;42.684;23.252;2023-06-14T01:38:21;94035.72;;;15.62;100.00
11339;BME280;5724;42.684;23.252;2023-06-14T01:40:48;94040.44;;;15.58;100.00
11339;BME280;5724;42.684;23.252;2023-06-14T01:43:15;94046.72;;;15.55;100.00
11339;BME280;5724;42.684;23.252;2023-06-14T01:45:42;94045.94;;;15.43;100.00
11339;BME280;5724;42.684;23.252;2023-06-14T01:48:09;94047.50;;;15.52;100.00
11339;BME280;5724;42.684;23.252;2023-06-14T01:50:35;94042.78;;;15.59;100.00
11339;BME280;5724;42.684;23.252;2023-06-14T01:53:00;94049.88;;;15.53;100.00
11339;BME280;5724;42.684;23.252;2023-06-14T01:55:26;94053.84;;;15.34;100.00
11339;BME280;5724;42.684;23.252;2023-06-14T01:57:52;94057.38;;;15.38;100.00
11339;BME280;5724;42.684;23.252;2023-06-14T02:00:19;94049.91;;;15.32;100.00
11339;BME280;5724;42.684;23.252;2023-06-14T02:02:45;94061.75;;;15.25;100.00
11339;BME280;5724;42.684;23.252;2023-06-14T02:05:11;94068.78;;;15.30;100.00
11339;BME280;5724;42.684;23.252;2023-06-14T02:07:36;94068.78;;;15.33;100.00
11339;BME280;5724;42.684;23.252;2023-06-14T02:10:05;94066.03;;;15.30;100.00
11339;BME280;5724;42.684;23.252;2023-06-14T02:12:30;94075.50;;;15.18;100.00
11339;BME280;5724;42.684;23.252;2023-06-14T02:14:56;94079.81;;;14.91;100.00
11339;BME280;5724;42.684;23.252;2023-06-14T02:17:22;94064.09;;;14.73;100.00
11339;BME280;5724;42.684;23.252;2023-06-14T02:19:47;94073.13;;;14.63;100.00
11339;BME280;5724;42.684;23.252;2023-06-14T02:22:14;94075.88;;;14.70;100.00
11339;BME280;5724;42.684;23.252;2023-06-14T02:24:41;94080.19;;;14.60;100.00
11339;BME280;5724;42.684;23.252;2023-06-14T02:27:07;94079.72;;;14.41;100.00
11339;BME280;5724;42.684;23.252;2023-06-14T02:29:33;94084.84;;;14.39;100.00
11339;BME280;5724;42.684;23.252;2023-06-14T02:31:59;94050.22;;;14.16;100.00
11339;BME280;5724;42.684;23.252;2023-06-14T02:34:24;94078.53;;;14.31;100.00
11339;BME280;5724;42.684;23.252;2023-06-14T02:36:50;94073.41;;;14.37;100.00
11339;BME280;5724;42.684;23.252;2023-06-14T02:39:15;94077.34;;;14.36;100.00
11339;BME280;5724;42.684;23.252;2023-06-14T02:41:41;94041.97;;;14.13;100.00
11339;BME280;5724;42.684;23.252;2023-06-14T02:44:07;94075.78;;;14.35;100.00
11339;BME280;5724;42.684;23.252;2023-06-14T02:46:32;94062.03;;;14.35;100.00
11339;BME280;5724;42.684;23.252;2023-06-14T02:48:58;94068.38;;;14.46;100.00
11339;BME280;5724;42.684;23.252;2023-06-14T02:51:24;94071.13;;;14.53;100.00
11339;BME280;5724;42.684;23.252;2023-06-14T02:53:49;94066.44;;;14.50;100.00
11339;BME280;5724;42.684;23.252;2023-06-14T02:56:15;94053.84;;;14.45;100.00
11339;BME280;5724;42.684;23.252;2023-06-14T02:58:42;94074.66;;;14.57;100.00
11339;BME280;5724;42.684;23.252;2023-06-14T03:01:08;94075.09;;;14.70;100.00
11339;BME280;5724;42.684;23.252;2023-06-14T03:03:35;94082.16;;;14.74;100.00
11339;BME280;5724;42.684;23.252;2023-06-14T03:06:01;94076.66;;;14.85;100.00
11339;BME280;5724;42.684;23.252;2023-06-14T03:08:33;94080.19;;;14.85;100.00
11339;BME280;5724;42.684;23.252;2023-06-14T03:11:04;94082.56;;;14.91;100.00
11339;BME280;5724;42.684;23.252;2023-06-14T03:13:36;94093.56;;;14.91;100.00
11339;BME280;5724;42.684;23.252;2023-06-14T03:16:04;94096.72;;;14.78;100.00
11339;BME280;5724;42.684;23.252;2023-06-14T03:18:30;94103.00;;;14.82;100.00
11339;BME280;5724;42.684;23.252;2023-06-14T03:20:57;94092.00;;;14.72;100.00
11339;BME280;5724;42.684;23.252;2023-06-14T03:23:26;94094.75;;;14.72;100.00
11339;BME280;5724;42.684;23.252;2023-06-14T03:25:51;94100.25;;;14.79;100.00
11339;BME280;5724;42.684;23.252;2023-06-14T03:28:17;94098.25;;;14.62;100.00
11339;BME280;5724;42.684;23.252;2023-06-14T03:30:43;94068.00;;;14.51;100.00
11339;BME280;5724;42.684;23.252;2023-06-14T03:33:08;94104.91;;;14.57;100.00
11339;BME280;5724;42.684;23.252;2023-06-14T03:35:34;94106.81;;;14.42;100.00
11339;BME280;5724;42.684;23.252;2023-06-14T03:38:00;94102.94;;;14.47;100.00
11339;BME280;5724;42.684;23.252;2023-06-14T03:40:25;94105.69;;;14.54;100.00
11339;BME280;5724;42.684;23.252;2023-06-14T03:42:54;94102.56;;;14.52;100.00
11339;BME280;5724;42.684;23.252;2023-06-14T03:45:19;94093.53;;;14.66;100.00
11339;BME280;5724;42.684;23.252;2023-06-14T03:47:45;94101.44;;;14.88;100.00
11339;BME280;5724;42.684;23.252;2023-06-14T03:50:11;94099.47;;;14.93;100.00
11339;BME280;5724;42.684;23.252;2023-06-14T03:52:37;94103.78;;;14.83;100.00
11339;BME280;5724;42.684;23.252;2023-06-14T03:55:03;94093.59;;;14.87;100.00
11339;BME280;5724;42.684;23.252;2023-06-14T03:57:29;94092.38;;;14.84;100.00
11339;BME280;5724;42.684;23.252;2023-06-14T03:59:55;94110.47;;;15.14;100.00
11339;BME280;5724;42.684;23.252;2023-06-14T04:02:20;94117.53;;;15.15;100.00
11339;BME280;5724;42.684;23.252;2023-06-14T04:04:47;94118.34;;;15.23;100.00
11339;BME280;5724;42.684;23.252;2023-06-14T04:07:14;94114.41;;;15.31;100.00
11339;BME280;5724;42.684;23.252;2023-06-14T04:09:40;94110.88;;;15.37;100.00
11339;BME280;5724;42.684;23.252;2023-06-14T04:12:07;94113.22;;;15.39;100.00
11339;BME280;5724;42.684;23.252;2023-06-14T04:14:34;94111.63;;;15.49;100.00
11339;BME280;5724;42.684;23.252;2023-06-14T04:17:00;94110.84;;;15.55;100.00
11339;BME280;5724;42.684;23.252;2023-06-14T04:19:26;94112.00;;;15.72;100.00
11339;BME280;5724;42.684;23.252;2023-06-14T04:21:51;94108.88;;;15.70;100.00
11339;BME280;5724;42.684;23.252;2023-06-14T04:24:17;94117.09;;;15.81;100.00
11339;BME280;5724;42.684;23.252;2023-06-14T04:26:43;94116.31;;;15.87;100.00
11339;BME280;5724;42.684;23.252;2023-06-14T04:29:18;94101.72;;;15.97;100.00
11339;BME280;5724;42.684;23.252;2023-06-14T04:31:45;94114.28;;;16.06;100.00
11339;BME280;5724;42.684;23.252;2023-06-14T04:34:12;94114.66;;;16.08;100.00
11339;BME280;5724;42.684;23.252;2023-06-14T04:36:44;94119.00;;;16.12;100.00
11339;BME280;5724;42.684;23.252;2023-06-14T04:39:15;94119.00;;;16.09;100.00
11339;BME280;5724;42.684;23.252;2023-06-14T04:41:42;94110.69;;;16.23;100.00
11339;BME280;5724;42.684;23.252;2023-06-14T04:44:08;94109.13;;;16.22;100.00
11339;BME280;5724;42.684;23.252;2023-06-14T04:46:35;94110.63;;;16.30;100.00
11339;BME280;5724;42.684;23.252;2023-06-14T04:49:09;94122.75;;;16.54;100.00
11339;BME280;5724;42.684;23.252;2023-06-14T04:51:35;94121.16;;;16.56;100.00
11339;BME280;5724;42.684;23.252;2023-06-14T04:54:02;94121.16;;;16.56;100.00
11339;BME280;5724;42.684;23.252;2023-06-14T04:56:28;94129.44;;;16.56;100.00
11339;BME280;5724;42.684;23.252;2023-06-14T04:58:54;94127.78;;;16.66;100.00
11339;BME280;5724;42.684;23.252;2023-06-14T05:01:22;94131.75;;;16.65;100.00
11339;BME280;5724;42.684;23.252;2023-06-14T05:03:48;94131.34;;;16.74;100.00
11339;BME280;5724;42.684;23.252;2023-06-14T05:06:15;94138.00;;;16.76;100.00
11339;BME280;5724;42.684;23.252;2023-06-14T05:08:41;94137.94;;;16.91;100.00
11339;BME280;5724;42.684;23.252;2023-06-14T05:11:06;94135.66;;;16.68;100.00
11339;BME280;5724;42.684;23.252;2023-06-14T05:13:32;94140.47;;;16.60;100.00
11339;BME280;5724;42.684;23.252;2023-06-14T05:15:58;94140.34;;;16.85;100.00
11339;BME280;5724;42.684;23.252;2023-06-14T05:18:24;94139.50;;;16.88;100.00
11339;BME280;5724;42.684;23.252;2023-06-14T05:20:51;94152.41;;;17.05;100.00
11339;BME280;5724;42.684;23.252;2023-06-14T05:23:16;94154.81;;;17.03;100.00
11339;BME280;5724;42.684;23.252;2023-06-14T05:25:45;94149.16;;;17.21;100.00
11339;BME280;5724;42.684;23.252;2023-06-14T05:28:11;94165.03;;;17.06;100.00
11339;BME280;5724;42.684;23.252;2023-06-14T05:30:38;94163.50;;;17.02;100.00
11339;BME280;5724;42.684;23.252;2023-06-14T05:33:05;94162.22;;;17.13;100.00
11339;BME280;5724;42.684;23.252;2023-06-14T05:35:31;94168.31;;;17.42;100.00
11339;BME280;5724;42.684;23.252;2023-06-14T05:37:56;94170.38;;;17.31;100.00
11339;BME280;5724;42.684;23.252;2023-06-14T05:40:22;94166.31;;;16.87;100.00
11339;BME280;5724;42.684;23.252;2023-06-14T05:42:47;94164.84;;;16.72;100.00
11339;BME280;5724;42.684;23.252;2023-06-14T05:45:13;94170.13;;;17.11;100.00
11339;BME280;5724;42.684;23.252;2023-06-14T05:47:40;94161.56;;;16.99;100.00
11339;BME280;5724;42.684;23.252;2023-06-14T05:50:06;94165.38;;;17.15;100.00
11339;BME280;5724;42.684;23.252;2023-06-14T05:52:31;94162.47;;;17.33;100.00
11339;BME280;5724;42.684;23.252;2023-06-14T05:54:57;94172.63;;;16.88;100.00
11339;BME280;5724;42.684;23.252;2023-06-14T05:57:22;94173.34;;;17.03;100.00
11339;BME280;5724;42.684;23.252;2023-06-14T05:59:47;94175.19;;;17.24;100.00
11339;BME280;5724;42.684;23.252;2023-06-14T06:02:13;94178.38;;;17.15;100.00
11339;BME280;5724;42.684;23.252;2023-06-14T06:04:39;94178.63;;;16.79;100.00
11339;BME280;5724;42.684;23.252;2023-06-14T06:07:04;94174.59;;;16.91;100.00
11339;BME280;5724;42.684;23.252;2023-06-14T06:09:30;94178.09;;;17.02;100.00
11339;BME280;5724;42.684;23.252;2023-06-14T06:11:56;94178.47;;;17.04;100.00
11339;BME280;5724;42.684;23.252;2023-06-14T06:14:21;94187.91;;;17.07;100.00
11339;BME280;5724;42.684;23.252;2023-06-14T06:16:47;94184.69;;;17.15;100.00
11339;BME280;5724;42.684;23.252;2023-06-14T06:19:12;94182.03;;;17.01;100.00
11339;BME280;5724;42.684;23.252;2023-06-14T06:21:38;94184.06;;;16.86;100.00
11339;BME280;5724;42.684;23.252;2023-06-14T06:24:04;94186.06;;;16.79;100.00
11339;BME280;5724;42.684;23.252;2023-06-14T06:26:31;94184.41;;;16.99;100.00
11339;BME280;5724;42.684;23.252;2023-06-14T06:28:57;94186.69;;;17.11;100.00
11339;BME280;5724;42.684;23.252;2023-06-14T06:31:23;94184.25;;;17.24;100.00
11339;BME280;5724;42.684;23.252;2023-06-14T06:33:48;94181.47;;;17.28;100.00
11339;BME280;5724;42.684;23.252;2023-06-14T06:36:14;94195.22;;;17.35;100.00
11339;BME280;5724;42.684;23.252;2023-06-14T06:38:40;94190.28;;;17.08;100.00
11339;BME280;5724;42.684;23.252;2023-06-14T06:41:06;94191.00;;;17.16;100.00
11339;BME280;5724;42.684;23.252;2023-06-14T06:43:31;94188.16;;;17.30;100.00
11339;BME280;5724;42.684;23.252;2023-06-14T06:45:56;94186.88;;;17.42;100.00
11339;BME280;5724;42.684;23.252;2023-06-14T06:48:22;94187.47;;;17.67;100.00
11339;BME280;5724;42.684;23.252;2023-06-14T06:50:47;94187.31;;;17.85;100.00
11339;BME280;5724;42.684;23.252;2023-06-14T06:53:13;94190.22;;;18.16;100.00
11339;BME280;5724;42.684;23.252;2023-06-14T06:55:39;94199.53;;;18.29;100.00
11339;BME280;5724;42.684;23.252;2023-06-14T06:58:04;94203.03;;;18.33;100.00
11339;BME280;5724;42.684;23.252;2023-06-14T07:00:31;94197.13;;;18.35;100.00
11339;BME280;5724;42.684;23.252;2023-06-14T07:02:56;94202.34;;;18.63;100.00
11339;BME280;5724;42.684;23.252;2023-06-14T07:05:22;94195.28;;;18.93;100.00
11339;BME280;5724;42.684;23.252;2023-06-14T07:07:48;94207.97;;;19.17;100.00
11339;BME280;5724;42.684;23.252;2023-06-14T07:10:13;94202.38;;;19.48;100.00
11339;BME280;5724;42.684;23.252;2023-06-14T07:12:39;94202.50;;;19.67;99.47
11339;BME280;5724;42.684;23.252;2023-06-14T07:15:09;94190.63;;;19.67;98.05
11339;BME280;5724;42.684;23.252;2023-06-14T07:17:35;94190.16;;;19.72;100.00
11339;BME280;5724;42.684;23.252;2023-06-14T07:20:03;94189.66;;;19.77;98.52
11339;BME280;5724;42.684;23.252;2023-06-14T07:22:42;94188.78;;;19.84;95.27
11339;BME280;5724;42.684;23.252;2023-06-14T07:25:09;94199.94;;;19.80;97.55
11339;BME280;5724;42.684;23.252;2023-06-14T07:27:37;94189.81;;;19.70;97.38
11339;BME280;5724;42.684;23.252;2023-06-14T07:30:03;94193.38;;;19.70;98.51
11339;BME280;5724;42.684;23.252;2023-06-14T07:32:29;94193.94;;;19.58;99.79
11339;BME280;5724;42.684;23.252;2023-06-14T07:34:54;94174.38;;;19.42;100.00
11339;BME280;5724;42.684;23.252;2023-06-14T07:37:20;94186.00;;;19.60;99.08
11339;BME280;5724;42.684;23.252;2023-06-14T07:39:45;94183.47;;;19.69;98.31
11339;BME280;5724;42.684;23.252;2023-06-14T07:42:11;94190.63;;;19.67;95.03
11339;BME280;5724;42.684;23.252;2023-06-14T07:44:36;94192.69;;;19.86;97.32
11339;BME280;5724;42.684;23.252;2023-06-14T07:47:02;94195.84;;;19.88;95.63
11339;BME280;5724;42.684;23.252;2023-06-14T07:49:28;94196.06;;;19.97;95.99
11339;BME280;5724;42.684;23.252;2023-06-14T07:51:54;94204.84;;;20.16;91.57
11339;BME280;5724;42.684;23.252;2023-06-14T07:54:19;94206.06;;;20.15;92.29
11339;BME280;5724;42.684;23.252;2023-06-14T07:56:50;94205.50;;;20.23;93.28
11339;BME280;5724;42.684;23.252;2023-06-14T07:59:15;94201.34;;;20.35;93.96
11339;BME280;5724;42.684;23.252;2023-06-14T08:01:41;94202.63;;;20.30;92.08
11339;BME280;5724;42.684;23.252;2023-06-14T08:04:14;94218.34;;;20.61;90.87
11339;BME280;5724;42.684;23.252;2023-06-14T08:06:39;94216.06;;;20.75;90.24
11339;BME280;5724;42.684;23.252;2023-06-14T08:09:05;94220.13;;;20.71;90.95
11339;BME280;5724;42.684;23.252;2023-06-14T08:11:31;94235.50;;;20.95;89.36
11339;BME280;5724;42.684;23.252;2023-06-14T08:13:56;94236.06;;;21.06;89.15
11339;BME280;5724;42.684;23.252;2023-06-14T08:16:22;94226.19;;;21.22;88.88
11339;BME280;5724;42.684;23.252;2023-06-14T08:18:48;94228.88;;;21.29;87.83
11339;BME280;5724;42.684;23.252;2023-06-14T08:21:14;94226.53;;;21.07;88.10
11339;BME280;5724;42.684;23.252;2023-06-14T08:23:40;94221.41;;;21.06;88.29
11339;BME280;5724;42.684;23.252;2023-06-14T08:26:08;94236.09;;;21.23;87.80
11339;BME280;5724;42.684;23.252;2023-06-14T08:28:34;94233.34;;;21.42;86.29
11339;BME280;5724;42.684;23.252;2023-06-14T08:30:59;94234.38;;;21.49;86.22
11339;BME280;5724;42.684;23.252;2023-06-14T08:33:25;94238.84;;;21.79;85.03
11339;BME280;5724;42.684;23.252;2023-06-14T08:35:51;94227.19;;;21.67;81.67
11339;BME280;5724;42.684;23.252;2023-06-14T08:38:16;94231.22;;;21.83;84.59
11339;BME280;5724;42.684;23.252;2023-06-14T08:40:42;94219.03;;;21.77;82.77
11339;BME280;5724;42.684;23.252;2023-06-14T08:43:08;94221.75;;;21.96;83.79
11339;BME280;5724;42.684;23.252;2023-06-14T08:45:35;94226.00;;;21.85;83.15
11339;BME280;5724;42.684;23.252;2023-06-14T08:48:01;94220.84;;;21.67;80.18
11339;BME280;5724;42.684;23.252;2023-06-14T08:50:27;94223.69;;;21.47;81.12
11339;BME280;5724;42.684;23.252;2023-06-14T08:52:58;94212.91;;;21.33;80.61
11339;BME280;5724;42.684;23.252;2023-06-14T08:55:28;94219.53;;;21.55;82.81
11339;BME280;5724;42.684;23.252;2023-06-14T08:57:58;94219.66;;;21.84;82.59
11339;BME280;5724;42.684;23.252;2023-06-14T09:00:24;94220.97;;;21.96;83.43
11339;BME280;5724;42.684;23.252;2023-06-14T09:02:51;94222.00;;;22.18;82.71
11339;BME280;5724;42.684;23.252;2023-06-14T09:05:22;94225.81;;;22.41;80.63
11339;BME280;5724;42.684;23.252;2023-06-14T09:07:48;94227.31;;;22.29;77.72
11339;BME280;5724;42.684;23.252;2023-06-14T09:10:15;94215.47;;;21.60;78.74
11339;BME280;5724;42.684;23.252;2023-06-14T09:12:41;94205.53;;;21.23;81.06
11339;BME280;5724;42.684;23.252;2023-06-14T09:15:08;94207.03;;;21.47;81.45
11339;BME280;5724;42.684;23.252;2023-06-14T09:17:38;94197.84;;;21.83;81.83
11339;BME280;5724;42.684;23.252;2023-06-14T09:20:04;94209.22;;;21.88;79.66
11339;BME280;5724;42.684;23.252;2023-06-14T09:22:39;94200.03;;;22.08;78.18
11339;BME280;5724;42.684;23.252;2023-06-14T09:25:05;94206.09;;;21.86;78.84
11339;BME280;5724;42.684;23.252;2023-06-14T09:27:32;94198.97;;;22.02;79.38
11339;BME280;5724;42.684;23.252;2023-06-14T09:29:57;94199.91;;;21.79;78.75
11339;BME280;5724;42.684;23.252;2023-06-14T09:32:23;94209.56;;;21.74;79.32
11339;BME280;5724;42.684;23.252;2023-06-14T09:34:49;94205.84;;;21.64;79.63
11339;BME280;5724;42.684;23.252;2023-06-14T09:37:30;94205.75;;;21.32;80.33
11339;BME280;5724;42.684;23.252;2023-06-14T09:39:57;94211.94;;;21.39;82.12
11339;BME280;5724;42.684;23.252;2023-06-14T09:42:23;94193.81;;;21.35;81.27
11339;BME280;5724;42.684;23.252;2023-06-14T09:44:52;94199.13;;;21.26;80.78
11339;BME280;5724;42.684;23.252;2023-06-14T09:47:18;94202.44;;;21.57;80.55
11339;BME280;5724;42.684;23.252;2023-06-14T09:49:43;94196.44;;;21.58;80.28
11339;BME280;5724;42.684;23.252;2023-06-14T09:52:15;94192.72;;;21.65;79.09
11339;BME280;5724;42.684;23.252;2023-06-14T09:54:43;94185.16;;;21.65;79.00
11339;BME280;5724;42.684;23.252;2023-06-14T09:57:11;94180.66;;;21.71;80.88
11339;BME280;5724;42.684;23.252;2023-06-14T09:59:41;94183.06;;;21.69;78.87
11339;BME280;5724;42.684;23.252;2023-06-14T10:02:11;94185.94;;;21.66;78.24
11339;BME280;5724;42.684;23.252;2023-06-14T10:04:46;94188.69;;;21.98;78.14
11339;BME280;5724;42.684;23.252;2023-06-14T10:07:19;94192.09;;;22.22;77.47
11339;BME280;5724;42.684;23.252;2023-06-14T10:09:46;94180.66;;;22.49;77.76
11339;BME280;5724;42.684;23.252;2023-06-14T10:12:16;94155.22;;;22.18;75.71
11339;BME280;5724;42.684;23.252;2023-06-14T10:14:48;94180.44;;;22.27;75.99
11339;BME280;5724;42.684;23.252;2023-06-14T10:17:47;94175.34;;;22.39;76.27
11339;BME280;5724;42.684;23.252;2023-06-14T10:23:06;94166.00;;;22.91;73.93
11339;BME280;5724;42.684;23.252;2023-06-14T10:25:34;94164.97;;;22.84;73.54
11339;BME280;5724;42.684;23.252;2023-06-14T10:30:37;94167.00;;;22.39;74.06
11339;BME280;5724;42.684;23.252;2023-06-14T10:33:07;94166.06;;;22.29;75.53
11339;BME280;5724;42.684;23.252;2023-06-14T10:35:33;94161.50;;;22.51;77.92
11339;BME280;5724;42.684;23.252;2023-06-14T10:38:12;94160.31;;;22.65;78.85
11339;BME280;5724;42.684;23.252;2023-06-14T10:40:38;94155.78;;;22.71;75.75
11339;BME280;5724;42.684;23.252;2023-06-14T10:43:23;94155.03;;;22.83;74.89
11339;BME280;5724;42.684;23.252;2023-06-14T10:46:14;94150.06;;;22.62;75.32
11339;BME280;5724;42.684;23.252;2023-06-14T10:48:41;94148.25;;;22.84;76.79
11339;BME280;5724;42.684;23.252;2023-06-14T10:51:16;94148.19;;;23.13;72.04
11339;BME280;5724;42.684;23.252;2023-06-14T10:53:48;94144.66;;;23.38;75.93
11339;BME280;5724;42.684;23.252;2023-06-14T10:56:27;94142.75;;;23.61;73.81
11339;BME280;5724;42.684;23.252;2023-06-14T10:58:54;94124.88;;;23.84;74.23
11339;BME280;5724;42.684;23.252;2023-06-14T11:01:31;94126.31;;;23.88;73.29
11339;BME280;5724;42.684;23.252;2023-06-14T11:04:10;94132.84;;;24.07;70.87
11339;BME280;5724;42.684;23.252;2023-06-14T11:06:47;94121.78;;;24.16;66.37
11339;BME280;5724;42.684;23.252;2023-06-14T11:12:00;94113.00;;;24.05;66.96
11339;BME280;5724;42.684;23.252;2023-06-14T11:14:30;94105.94;;;24.13;68.14
11339;BME280;5724;42.684;23.252;2023-06-14T11:16:56;94095.97;;;24.12;68.16
11339;BME280;5724;42.684;23.252;2023-06-14T11:19:21;94096.53;;;24.33;67.04
11339;BME280;5724;42.684;23.252;2023-06-14T11:21:48;94113.28;;;24.20;69.46
11339;BME280;5724;42.684;23.252;2023-06-14T11:24:14;94061.31;;;24.01;67.16
11339;BME280;5724;42.684;23.252;2023-06-14T11:26:40;94121.19;;;24.34;66.91
11339;BME280;5724;42.684;23.252;2023-06-14T11:29:06;94115.94;;;24.36;66.18
11339;BME280;5724;42.684;23.252;2023-06-14T11:31:32;94113.13;;;24.58;68.51
11339;BME280;5724;42.684;23.252;2023-06-14T11:33:58;94107.53;;;24.80;66.52
11339;BME280;5724;42.684;23.252;2023-06-14T11:36:31;94113.38;;;24.95;64.29
11339;BME280;5724;42.684;23.252;2023-06-14T11:39:06;94075.53;;;24.72;64.14
11339;BME280;5724;42.684;23.252;2023-06-14T11:41:44;94104.22;;;24.50;64.74
11339;BME280;5724;42.684;23.252;2023-06-14T11:44:10;94093.94;;;24.25;65.78
11339;BME280;5724;42.684;23.252;2023-06-14T11:46:37;94096.16;;;23.96;68.01
11339;BME280;5724;42.684;23.252;2023-06-14T11:49:03;94098.59;;;24.07;66.03
11339;BME280;5724;42.684;23.252;2023-06-14T11:51:33;94085.19;;;24.02;66.14
11339;BME280;5724;42.684;23.252;2023-06-14T11:54:04;94079.69;;;24.11;66.33
11339;BME280;5724;42.684;23.252;2023-06-14T11:56:31;94080.97;;;24.32;65.88
11339;BME280;5724;42.684;23.252;2023-06-14T11:58:57;94092.28;;;24.50;63.64
11339;BME280;5724;42.684;23.252;2023-06-14T12:01:24;94075.53;;;24.50;63.73
11339;BME280;5724;42.684;23.252;2023-06-14T12:03:53;94070.59;;;24.54;66.39
11339;BME280;5724;42.684;23.252;2023-06-14T12:06:29;94071.91;;;24.62;68.07
11339;BME280;5724;42.684;23.252;2023-06-14T12:08:58;94060.84;;;24.90;67.80
11339;BME280;5724;42.684;23.252;2023-06-14T12:11:24;94057.13;;;25.15;65.04
11339;BME280;5724;42.684;23.252;2023-06-14T12:13:53;94050.34;;;25.25;63.01
11339;BME280;5724;42.684;23.252;2023-06-14T12:16:18;94063.00;;;25.57;62.13
11339;BME280;5724;42.684;23.252;2023-06-14T12:18:44;94054.38;;;25.73;61.04
11339;BME280;5724;42.684;23.252;2023-06-14T12:21:10;94043.34;;;25.79;57.67
11339;BME280;5724;42.684;23.252;2023-06-14T12:23:48;94046.78;;;25.83;58.80
11339;BME280;5724;42.684;23.252;2023-06-14T12:28:41;94049.28;;;25.90;61.03
11339;BME280;5724;42.684;23.252;2023-06-14T12:31:11;94050.53;;;25.98;59.45
11339;BME280;5724;42.684;23.252;2023-06-14T12:33:38;94047.56;;;25.92;58.28
11339;BME280;5724;42.684;23.252;2023-06-14T12:36:05;94045.72;;;25.99;58.28
11339;BME280;5724;42.684;23.252;2023-06-14T12:38:32;94047.75;;;26.16;58.02
11339;BME280;5724;42.684;23.252;2023-06-14T12:40:58;94036.06;;;26.18;57.93
11339;BME280;5724;42.684;23.252;2023-06-14T12:43:23;94030.59;;;26.14;59.06
11339;BME280;5724;42.684;23.252;2023-06-14T12:45:49;94018.63;;;26.05;62.91
11339;BME280;5724;42.684;23.252;2023-06-14T12:48:15;94028.13;;;26.16;60.38
11339;BME280;5724;42.684;23.252;2023-06-14T12:50:41;94017.22;;;26.28;57.66
11339;BME280;5724;42.684;23.252;2023-06-14T12:53:06;94019.72;;;26.25;58.40
11339;BME280;5724;42.684;23.252;2023-06-14T12:55:32;94012.72;;;26.30;56.77
11339;BME280;5724;42.684;23.252;2023-06-14T12:57:58;94010.69;;;25.94;58.06
11339;BME280;5724;42.684;23.252;2023-06-14T13:00:23;94002.88;;;25.52;60.49
11339;BME280;5724;42.684;23.252;2023-06-14T13:02:51;94011.53;;;25.36;59.37
11339;BME280;5724;42.684;23.252;2023-06-14T13:05:18;94001.84;;;25.19;61.86
11339;BME280;5724;42.684;23.252;2023-06-14T13:07:43;94009.97;;;24.95;64.05